Terminal Aerodrome Forecast
Issued by NWS

Home | Current Version | Previous Version | Graphics & Text | Print | Product List | Glossary On
Versions: 1 2 3 4 5 6 7 8 9 10 11 12 13 14 15 16 17 18 19 20
763
FTUS43 KMPX 230546
TAFAXN
TAF
KAXN 230546Z 2306/2406 17017G25KT P6SM SCT040 BKN070 WS020/19050KT
     FM230900 18014KT 6SM -RA SCT025 OVC040 WS020/21045KT
      TEMPO 2309/2312 3SM TSRA BKN025CB
     FM231400 20012G20KT P6SM VCSH SCT025 OVC050
     FM232000 21010KT 6SM SHRA BKN080
     FM240200 18006KT P6SM BKN100=

USA.gov is the U.S. government's official web portal to all federal, state and local government web resources and services.